Time;durP1;ratioP1;P1;durP2;ratioP2;P2;SDS_P1;SDS_P2;PMS_P1;PMS_P2;Temp;Humidity;BMP_temperature;BMP_pressure;BME280_temperature;BME280_humidity;BME280_pressure;Samples;Min_cycle;Max_cycle;Signal;HPM_P1;HPM_P2
2021/12/16 00:05:59;;;;;;;20.77;13.13;;;9.70;99.90;;;;;;5043159;28;20517;-66
2021/12/16 00:08:34;;;;;;;22.33;12.67;;;9.70;99.90;;;;;;5063705;28;20745;-67
2021/12/16 00:11:11;;;;;;;19.73;11.93;;;9.70;99.90;;;;;;5059246;28;20460;-66
2021/12/16 00:30:24;;;;;;;17.93;10.30;;;9.60;99.90;;;;;;5028469;28;20488;-68
2021/12/16 00:33:11;;;;;;;14.97;10.70;;;9.60;99.90;;;;;;5057812;28;20437;-68
2021/12/16 00:35:38;;;;;;;15.67;11.70;;;9.70;99.90;;;;;;5060885;28;20486;-68
2021/12/16 00:38:05;;;;;;;13.93;9.73;;;9.60;99.90;;;;;;5066148;28;20520;-68
2021/12/16 00:40:33;;;;;;;14.67;10.47;;;9.60;99.90;;;;;;5064878;28;20976;-68
2021/12/16 00:43:12;;;;;;;16.60;10.70;;;9.60;99.90;;;;;;5061914;28;20493;-68
2021/12/16 00:45:44;;;;;;;17.80;11.67;;;9.60;99.90;;;;;;5060107;28;20482;-68
2021/12/16 00:48:21;;;;;;;15.63;9.73;;;9.60;99.90;;;;;;5058892;28;20522;-67
2021/12/16 00:56:18;;;;;;;14.00;8.60;;;9.60;99.90;;;;;;5065794;28;20509;-68
2021/12/16 00:58:50;;;;;;;14.50;10.17;;;9.60;99.90;;;;;;5055060;28;20903;-68
2021/12/16 01:01:31;;;;;;;17.07;11.40;;;9.70;99.90;;;;;;5053043;28;20463;-69
2021/12/16 01:04:18;;;;;;;15.20;11.10;;;9.60;99.90;;;;;;5064701;28;20863;-68
2021/12/16 01:07:04;;;;;;;16.10;10.87;;;9.70;99.90;;;;;;5059787;28;20488;-68
2021/12/16 01:34:25;;;;;;;15.93;11.30;;;9.70;99.90;;;;;;5060517;28;20442;-67
2021/12/16 01:42:49;;;;;;;16.63;11.40;;;9.70;99.90;;;;;;5043239;28;20492;-66
2021/12/16 01:45:41;;;;;;;13.83;8.80;;;9.70;99.90;;;;;;5049158;28;20481;-65
2021/12/16 01:51:15;;;;;;;17.63;10.67;;;9.60;99.90;;;;;;5013556;28;20467;-67
2021/12/16 01:56:43;;;;;;;16.30;10.87;;;9.60;99.90;;;;;;5049453;28;20493;-67
2021/12/16 01:59:16;;;;;;;16.77;11.20;;;9.60;99.90;;;;;;5048069;28;20557;-67
2021/12/16 02:01:44;;;;;;;18.07;10.80;;;9.60;99.90;;;;;;5053033;28;20466;-66
2021/12/16 02:04:19;;;;;;;20.20;11.20;;;9.60;99.90;;;;;;5050202;28;20549;-66
2021/12/16 02:07:01;;;;;;;15.20;12.30;;;9.70;99.90;;;;;;5055470;28;20979;-69
2021/12/16 02:09:34;;;;;;;15.53;11.50;;;9.60;99.90;;;;;;5062843;28;20445;-67
2021/12/16 02:12:15;;;;;;;15.60;9.80;;;9.60;99.90;;;;;;5064206;28;20527;-67
2021/12/16 02:28:52;;;;;;;18.90;11.07;;;9.60;99.90;;;;;;5062385;28;20986;-67
2021/12/16 02:31:45;;;;;;;13.90;10.37;;;9.60;99.90;;;;;;5056680;28;20475;-67
2021/12/16 02:34:28;;;;;;;12.20;9.83;;;9.60;99.90;;;;;;5059232;28;20590;-66
2021/12/16 02:36:56;;;;;;;15.63;9.60;;;9.60;99.90;;;;;;5052258;28;20552;-67
2021/12/16 02:39:26;;;;;;;14.83;11.17;;;9.60;99.90;;;;;;5059684;28;20974;-67
2021/12/16 02:41:57;;;;;;;11.90;9.90;;;9.60;99.90;;;;;;5058599;28;20454;-67
2021/12/16 02:44:31;;;;;;;12.83;9.63;;;9.60;99.90;;;;;;5054912;28;20556;-67
2021/12/16 02:49:47;;;;;;;20.00;13.83;;;9.60;99.90;;;;;;5047674;28;20532;-67
2021/12/16 02:52:16;;;;;;;15.43;11.37;;;9.60;99.90;;;;;;5064524;28;20450;-67
2021/12/16 02:54:44;;;;;;;20.30;11.53;;;9.70;99.90;;;;;;5058970;28;20451;-67
2021/12/16 02:57:11;;;;;;;13.87;10.60;;;9.70;99.90;;;;;;5063772;28;20547;-67
2021/12/16 02:59:39;;;;;;;27.70;12.47;;;9.70;99.90;;;;;;5061255;28;20454;-67
2021/12/16 03:02:11;;;;;;;16.60;11.87;;;9.70;99.90;;;;;;5057737;28;20986;-67
2021/12/16 03:04:40;;;;;;;14.23;10.67;;;9.70;99.90;;;;;;5055701;28;20455;-67
2021/12/16 03:07:11;;;;;;;22.60;12.40;;;9.70;99.90;;;;;;5054853;28;20450;-67
2021/12/16 03:10:16;;;;;;;17.23;10.80;;;9.70;99.90;;;;;;5055634;28;20456;-67
2021/12/16 03:12:55;;;;;;;20.07;12.50;;;9.70;99.90;;;;;;5060675;28;20451;-66
2021/12/16 03:15:38;;;;;;;18.10;11.07;;;9.70;99.90;;;;;;5056763;28;20491;-67
2021/12/16 03:18:14;;;;;;;19.80;10.00;;;9.70;99.90;;;;;;5055922;28;20564;-67
2021/12/16 03:20:45;;;;;;;15.63;11.80;;;9.70;99.90;;;;;;5050352;28;20555;-66
2021/12/16 03:23:28;;;;;;;21.43;12.50;;;9.70;99.90;;;;;;5062761;28;20480;-67
2021/12/16 03:26:23;;;;;;;22.83;12.50;;;9.60;99.90;;;;;;5063858;28;20640;-66
2021/12/16 03:29:12;;;;;;;16.93;11.90;;;9.60;99.90;;;;;;5061274;28;20441;-67
2021/12/16 03:31:56;;;;;;;21.90;13.30;;;9.60;99.90;;;;;;5062396;28;20517;-67
2021/12/16 03:37:14;;;;;;;23.27;14.43;;;9.60;99.90;;;;;;5050939;28;20551;-67
2021/12/16 03:39:43;;;;;;;20.20;11.53;;;9.60;99.90;;;;;;5064193;28;20611;-67
2021/12/16 03:42:12;;;;;;;26.03;14.30;;;9.60;99.90;;;;;;5066859;28;20462;-67
2021/12/16 03:44:52;;;;;;;19.73;12.70;;;9.60;99.90;;;;;;5063078;28;20458;-67
2021/12/16 03:47:22;;;;;;;18.90;12.47;;;9.60;99.90;;;;;;5053491;28;20552;-67
2021/12/16 03:49:50;;;;;;;20.93;11.73;;;9.60;99.90;;;;;;5052294;28;20460;-67
2021/12/16 03:52:17;;;;;;;17.03;12.20;;;9.60;99.90;;;;;;5058599;28;20622;-67
2021/12/16 03:54:49;;;;;;;19.80;12.97;;;9.60;99.90;;;;;;5058017;28;20532;-67
2021/12/16 03:57:21;;;;;;;22.97;15.70;;;9.60;99.90;;;;;;5066012;28;20454;-67
2021/12/16 03:59:49;;;;;;;15.83;11.23;;;9.50;99.90;;;;;;5060196;28;20829;-67
2021/12/16 04:02:20;;;;;;;17.97;12.80;;;9.60;99.90;;;;;;5060694;28;20964;-67
2021/12/16 04:04:51;;;;;;;19.30;13.43;;;9.60;99.90;;;;;;5060461;28;20489;-66
2021/12/16 04:07:19;;;;;;;18.83;12.03;;;9.60;99.90;;;;;;5064941;28;20456;-68
2021/12/16 04:09:46;;;;;;;22.73;12.23;;;9.60;99.90;;;;;;5052542;28;20453;-69
2021/12/16 04:12:18;;;;;;;19.27;13.50;;;9.60;99.90;;;;;;5064813;28;20453;-67
2021/12/16 04:14:49;;;;;;;19.77;12.23;;;9.50;99.90;;;;;;5062688;28;20511;-67
2021/12/16 04:17:18;;;;;;;25.13;13.87;;;9.50;99.90;;;;;;5064815;28;20912;-68
2021/12/16 04:19:45;;;;;;;25.90;13.07;;;9.50;99.90;;;;;;5060447;28;20448;-66
2021/12/16 04:22:16;;;;;;;26.10;13.40;;;9.40;99.90;;;;;;5065702;28;20474;-67
2021/12/16 04:24:44;;;;;;;21.77;13.40;;;9.40;99.90;;;;;;5062559;28;20566;-66
2021/12/16 04:27:11;;;;;;;20.73;14.00;;;9.40;99.90;;;;;;5058192;28;20525;-67
2021/12/16 04:29:38;;;;;;;24.23;14.93;;;9.30;99.90;;;;;;5053771;28;20463;-67
2021/12/16 04:32:07;;;;;;;17.03;12.23;;;9.30;99.90;;;;;;5063442;28;21016;-67
2021/12/16 04:34:34;;;;;;;22.23;13.20;;;9.30;99.90;;;;;;5059013;28;20522;-67
2021/12/16 04:37:01;;;;;;;19.80;12.73;;;9.30;99.90;;;;;;5056084;28;20469;-67
2021/12/16 04:39:31;;;;;;;20.97;14.20;;;9.20;99.90;;;;;;5061009;28;20568;-67
2021/12/16 04:41:58;;;;;;;21.73;12.87;;;9.20;99.90;;;;;;5052984;28;21000;-67
2021/12/16 04:44:26;;;;;;;18.07;12.30;;;9.10;99.90;;;;;;5058472;28;20481;-67
2021/12/16 04:46:53;;;;;;;19.10;13.30;;;9.00;99.90;;;;;;5052174;28;20965;-66
2021/12/16 04:49:21;;;;;;;20.60;13.93;;;9.00;99.90;;;;;;5059408;28;20448;-68
2021/12/16 04:51:50;;;;;;;26.80;13.43;;;8.90;99.90;;;;;;5048650;28;20457;-68
2021/12/16 04:54:19;;;;;;;21.23;13.70;;;8.90;99.90;;;;;;5059921;28;20453;-68
2021/12/16 04:56:47;;;;;;;21.30;13.50;;;8.90;99.90;;;;;;5055605;28;20974;-68
2021/12/16 04:59:17;;;;;;;27.20;15.47;;;8.90;99.90;;;;;;5057090;28;20450;-68
2021/12/16 05:01:48;;;;;;;21.37;14.80;;;8.90;99.90;;;;;;5058973;28;20544;-68
2021/12/16 05:04:15;;;;;;;23.33;14.20;;;8.80;99.90;;;;;;5062050;28;20472;-68
2021/12/16 05:06:43;;;;;;;19.93;14.67;;;8.90;99.90;;;;;;5050356;28;20537;-68
2021/12/16 05:09:12;;;;;;;18.30;12.80;;;8.90;99.90;;;;;;5059645;28;20449;-68
2021/12/16 05:11:39;;;;;;;20.10;12.47;;;8.90;99.90;;;;;;5056025;28;20777;-68
2021/12/16 05:14:07;;;;;;;20.60;14.50;;;8.90;99.90;;;;;;5056795;28;20453;-68
2021/12/16 05:16:34;;;;;;;17.00;13.67;;;8.90;99.90;;;;;;5046674;28;20871;-68
2021/12/16 05:19:01;;;;;;;19.30;14.77;;;8.90;99.90;;;;;;5053843;28;20455;-68
2021/12/16 05:21:44;;;;;;;24.50;14.40;;;8.80;99.90;;;;;;5062227;28;20512;-68
2021/12/16 05:24:25;;;;;;;21.33;13.03;;;8.80;99.90;;;;;;5057698;28;20507;-68
2021/12/16 05:26:54;;;;;;;24.23;12.70;;;8.80;99.90;;;;;;5059630;28;20455;-68
2021/12/16 05:29:21;;;;;;;23.00;14.73;;;8.80;99.90;;;;;;5053662;28;20506;-68
2021/12/16 05:31:47;;;;;;;21.30;12.37;;;8.80;99.90;;;;;;5059302;28;20452;-68
2021/12/16 05:34:14;;;;;;;18.47;12.40;;;8.80;99.90;;;;;;5053006;28;20949;-68
2021/12/16 05:36:41;;;;;;;18.50;13.40;;;8.80;99.90;;;;;;5060668;28;20483;-68
2021/12/16 05:39:09;;;;;;;24.57;14.10;;;8.80;99.90;;;;;;5048509;28;20511;-68
2021/12/16 05:41:38;;;;;;;21.40;14.63;;;8.90;99.90;;;;;;5058370;28;20456;-67
2021/12/16 05:44:05;;;;;;;15.87;12.37;;;8.90;99.90;;;;;;5064944;28;20884;-66
2021/12/16 05:46:33;;;;;;;20.97;13.57;;;9.00;99.90;;;;;;5055059;28;20544;-68
2021/12/16 05:49:02;;;;;;;19.03;12.67;;;9.10;99.90;;;;;;5056526;28;20451;-66
2021/12/16 05:51:32;;;;;;;20.47;14.37;;;9.10;99.90;;;;;;5063972;28;20460;-68
2021/12/16 05:54:01;;;;;;;17.40;12.37;;;9.10;99.90;;;;;;5063208;28;20437;-69
2021/12/16 05:56:28;;;;;;;20.53;13.27;;;9.20;99.90;;;;;;5063092;28;20545;-69
2021/12/16 05:58:57;;;;;;;14.73;12.40;;;9.30;99.90;;;;;;5064995;28;20455;-67
2021/12/16 06:01:29;;;;;;;18.53;13.27;;;9.30;99.90;;;;;;5047148;28;20768;-67
2021/12/16 06:03:56;;;;;;;22.37;13.87;;;9.30;99.90;;;;;;5060393;28;20504;-66
2021/12/16 06:06:23;;;;;;;17.43;12.20;;;9.30;99.90;;;;;;5059582;28;20573;-66
2021/12/16 06:08:51;;;;;;;21.13;15.03;;;9.30;99.90;;;;;;5053787;28;20459;-65
2021/12/16 06:11:21;;;;;;;21.60;14.87;;;9.40;99.90;;;;;;5059148;28;20984;-67
2021/12/16 06:14:01;;;;;;;20.87;14.10;;;9.40;99.90;;;;;;5057664;28;20482;-66
2021/12/16 06:27:33;;;;;;;20.00;13.30;;;9.40;99.90;;;;;;5059297;28;20441;-67
2021/12/16 06:30:00;;;;;;;23.20;13.57;;;9.50;99.90;;;;;;5061354;28;20473;-67
2021/12/16 06:32:28;;;;;;;24.67;13.50;;;9.40;99.90;;;;;;5053030;28;20462;-67
2021/12/16 06:34:56;;;;;;;18.17;12.97;;;9.50;99.90;;;;;;5064692;28;20467;-69
2021/12/16 06:37:24;;;;;;;17.87;12.80;;;9.50;99.90;;;;;;5048857;28;20927;-68
2021/12/16 06:39:50;;;;;;;23.67;17.13;;;9.50;99.90;;;;;;5053743;28;20805;-68
2021/12/16 06:42:17;;;;;;;19.70;12.27;;;9.50;99.90;;;;;;5051359;28;20457;-67
2021/12/16 06:44:50;;;;;;;22.13;15.67;;;9.50;99.90;;;;;;5055326;28;20489;-67
2021/12/16 06:47:21;;;;;;;22.03;15.20;;;9.50;99.90;;;;;;5048873;28;20624;-69
2021/12/16 06:49:52;;;;;;;26.40;18.10;;;9.50;99.90;;;;;;5056948;28;20533;-69
2021/12/16 06:52:23;;;;;;;18.73;14.20;;;9.50;99.90;;;;;;5064729;28;20454;-69
2021/12/16 06:55:05;;;;;;;22.53;14.73;;;9.50;99.90;;;;;;5061086;28;20466;-68
2021/12/16 06:57:42;;;;;;;23.77;14.73;;;9.50;99.90;;;;;;5050799;28;20536;-71
2021/12/16 07:00:15;;;;;;;16.20;13.13;;;9.40;99.90;;;;;;5053093;28;21002;-63
2021/12/16 07:02:54;;;;;;;19.30;12.90;;;9.50;99.90;;;;;;5057352;28;20464;-72
2021/12/16 07:05:25;;;;;;;27.80;16.30;;;9.50;99.90;;;;;;5047727;28;20485;-68
2021/12/16 07:07:51;;;;;;;17.63;14.73;;;9.50;99.90;;;;;;5059605;28;20441;-67
2021/12/16 07:10:20;;;;;;;21.10;13.70;;;9.50;99.90;;;;;;5058481;28;20515;-69
2021/12/16 07:12:49;;;;;;;23.87;14.77;;;9.50;99.90;;;;;;5054109;28;20487;-67
2021/12/16 07:15:20;;;;;;;24.23;15.33;;;9.50;99.90;;;;;;5064605;28;20492;-67
2021/12/16 07:17:47;;;;;;;22.43;16.20;;;9.50;99.90;;;;;;5056027;28;20546;-67
2021/12/16 07:20:18;;;;;;;23.40;14.53;;;9.50;99.90;;;;;;5046036;28;20458;-67
2021/12/16 07:22:47;;;;;;;16.23;12.17;;;9.40;99.90;;;;;;5048790;28;20941;-67
2021/12/16 07:25:13;;;;;;;21.17;14.27;;;9.50;99.90;;;;;;5055179;28;20492;-69
2021/12/16 07:27:40;;;;;;;19.73;13.77;;;9.50;99.90;;;;;;5061511;28;20523;-69
2021/12/16 07:30:11;;;;;;;27.67;17.83;;;9.50;99.90;;;;;;5064014;28;20478;-68
2021/12/16 07:32:38;;;;;;;25.50;14.43;;;9.50;99.90;;;;;;5062918;28;20627;-68
2021/12/16 07:35:08;;;;;;;24.10;14.60;;;9.50;99.90;;;;;;5065501;28;20569;-69
2021/12/16 07:37:35;;;;;;;23.17;15.70;;;9.50;99.90;;;;;;5059858;28;20511;-69
2021/12/16 07:40:07;;;;;;;21.33;14.93;;;9.50;99.90;;;;;;5061638;28;20479;-68
2021/12/16 07:42:44;;;;;;;18.40;14.63;;;9.50;99.90;;;;;;5062791;28;20488;-69
2021/12/16 07:45:12;;;;;;;23.47;16.60;;;9.50;99.90;;;;;;5061131;28;20508;-66
2021/12/16 07:47:39;;;;;;;24.17;14.10;;;9.60;99.90;;;;;;5065462;28;20461;-66
2021/12/16 07:50:07;;;;;;;19.70;13.50;;;9.60;99.90;;;;;;5059798;28;20535;-67
2021/12/16 07:52:35;;;;;;;25.10;13.77;;;9.60;99.90;;;;;;5058596;28;20451;-66
2021/12/16 07:55:03;;;;;;;19.27;14.30;;;9.60;99.90;;;;;;5054531;28;20496;-66
2021/12/16 07:57:30;;;;;;;34.40;16.67;;;9.70;99.90;;;;;;5057523;28;20538;-67
2021/12/16 07:59:57;;;;;;;19.80;14.80;;;9.70;99.90;;;;;;5060471;28;20465;-66
2021/12/16 08:02:24;;;;;;;20.10;14.33;;;9.70;99.90;;;;;;5052563;28;20450;-67
2021/12/16 08:04:52;;;;;;;22.50;14.93;;;9.70;99.90;;;;;;5053378;28;20591;-68
2021/12/16 08:07:21;;;;;;;24.57;14.73;;;9.80;99.90;;;;;;5064077;28;20482;-67
2021/12/16 08:09:49;;;;;;;25.30;15.87;;;9.80;99.90;;;;;;5065202;28;20916;-68
2021/12/16 08:12:18;;;;;;;25.00;15.67;;;9.80;99.90;;;;;;5064249;28;20450;-67
2021/12/16 08:14:46;;;;;;;22.53;15.20;;;9.90;99.90;;;;;;5066193;28;21013;-67
2021/12/16 08:17:14;;;;;;;16.63;13.57;;;9.80;99.90;;;;;;5052148;28;20507;-67
2021/12/16 08:19:41;;;;;;;22.03;15.97;;;9.90;99.90;;;;;;5061165;28;20972;-67
2021/12/16 08:22:08;;;;;;;26.60;13.67;;;9.80;99.90;;;;;;5058579;28;20523;-67
2021/12/16 08:24:35;;;;;;;20.13;13.27;;;9.90;99.90;;;;;;5054568;28;20507;-67
2021/12/16 08:27:02;;;;;;;23.40;14.27;;;9.90;99.90;;;;;;5061840;28;20968;-67
2021/12/16 08:29:30;;;;;;;18.83;14.13;;;9.90;99.90;;;;;;5060434;28;20516;-67
2021/12/16 08:31:57;;;;;;;18.90;12.73;;;9.90;99.90;;;;;;5050109;28;20521;-67
2021/12/16 08:34:25;;;;;;;24.43;14.80;;;9.90;99.90;;;;;;5062722;28;20523;-67
2021/12/16 08:36:52;;;;;;;23.33;13.57;;;9.90;99.90;;;;;;5066825;28;20943;-67
2021/12/16 08:39:19;;;;;;;20.23;15.50;;;9.90;99.90;;;;;;5060994;28;20871;-67
2021/12/16 08:41:50;;;;;;;20.97;13.30;;;10.00;99.90;;;;;;5055273;28;20531;-67
2021/12/16 08:44:17;;;;;;;18.50;13.20;;;10.00;99.90;;;;;;5052882;28;20487;-67
2021/12/16 08:46:49;;;;;;;22.83;15.97;;;10.10;99.90;;;;;;5057817;28;20481;-67
2021/12/16 08:49:17;;;;;;;24.63;15.97;;;10.10;99.90;;;;;;5050644;28;20482;-67
2021/12/16 08:51:50;;;;;;;29.07;15.77;;;10.20;99.90;;;;;;5059659;28;20956;-67
2021/12/16 08:54:17;;;;;;;19.13;12.70;;;10.20;99.90;;;;;;5057659;28;20485;-67
2021/12/16 08:56:44;;;;;;;23.10;16.73;;;10.20;99.90;;;;;;5058102;28;20976;-67
2021/12/16 08:59:11;;;;;;;22.60;13.70;;;10.30;99.90;;;;;;5063928;28;20453;-67
2021/12/16 09:01:42;;;;;;;22.43;12.53;;;10.30;99.90;;;;;;5062135;28;20451;-67
2021/12/16 09:04:10;;;;;;;17.77;13.60;;;10.20;99.90;;;;;;5064789;28;20449;-67
2021/12/16 09:06:37;;;;;;;19.83;14.27;;;10.30;99.90;;;;;;5063510;28;20477;-67
2021/12/16 09:09:06;;;;;;;18.70;15.00;;;10.20;99.90;;;;;;5056683;28;20974;-67
2021/12/16 09:11:38;;;;;;;17.67;12.80;;;10.20;99.90;;;;;;5063800;28;20530;-67
2021/12/16 09:14:05;;;;;;;50.50;38.20;;;10.30;99.90;;;;;;5065726;28;20454;-66
2021/12/16 09:16:33;;;;;;;33.07;21.30;;;10.40;99.90;;;;;;5049570;28;20470;-67
2021/12/16 09:19:01;;;;;;;25.93;15.67;;;10.40;99.90;;;;;;5054809;28;20483;-67
2021/12/16 09:21:32;;;;;;;16.43;11.60;;;10.50;99.90;;;;;;5058327;28;20461;-67
2021/12/16 09:24:00;;;;;;;21.70;13.13;;;10.50;99.90;;;;;;5047071;28;20509;-67
2021/12/16 09:26:27;;;;;;;20.13;13.40;;;10.50;99.90;;;;;;5056771;28;20479;-67
2021/12/16 09:28:55;;;;;;;19.03;12.90;;;10.50;99.90;;;;;;5054252;28;20458;-67
2021/12/16 09:31:29;;;;;;;18.00;12.23;;;10.50;99.90;;;;;;5049658;28;20454;-67
2021/12/16 09:34:02;;;;;;;15.93;12.60;;;10.60;99.90;;;;;;5065054;28;20484;-67
2021/12/16 09:36:30;;;;;;;15.80;12.27;;;10.60;99.90;;;;;;5059009;28;20467;-66
2021/12/16 09:38:57;;;;;;;26.67;13.30;;;10.70;99.90;;;;;;5062748;28;20532;-66
2021/12/16 09:41:25;;;;;;;22.70;13.43;;;10.70;99.90;;;;;;5059757;28;20442;-67
2021/12/16 09:43:53;;;;;;;21.87;13.03;;;10.70;99.90;;;;;;5060062;28;20513;-69
2021/12/16 09:46:23;;;;;;;15.00;11.37;;;10.70;99.90;;;;;;5055598;28;20908;-67
2021/12/16 09:48:51;;;;;;;20.03;12.37;;;10.70;99.90;;;;;;5060187;28;20456;-69
2021/12/16 09:51:23;;;;;;;15.93;12.63;;;10.80;99.90;;;;;;5056717;28;20487;-68
2021/12/16 09:53:53;;;;;;;20.13;13.70;;;10.80;99.90;;;;;;5050392;28;20459;-66
2021/12/16 09:56:22;;;;;;;24.30;13.30;;;10.80;99.90;;;;;;5063878;28;20475;-67
2021/12/16 09:58:50;;;;;;;16.37;13.13;;;10.80;99.90;;;;;;5056554;28;20535;-69
2021/12/16 10:01:19;;;;;;;20.40;12.87;;;10.90;99.90;;;;;;5045151;28;20578;-69
2021/12/16 10:03:48;;;;;;;25.23;14.23;;;10.90;99.90;;;;;;5061920;28;20985;-66
2021/12/16 10:06:16;;;;;;;16.47;12.60;;;10.90;99.90;;;;;;5050288;28;21002;-67
2021/12/16 10:08:43;;;;;;;20.20;12.87;;;10.90;99.90;;;;;;5055152;28;20501;-66
2021/12/16 10:11:11;;;;;;;19.93;13.37;;;10.90;99.90;;;;;;5053787;28;20475;-67
2021/12/16 10:13:45;;;;;;;19.07;12.50;;;10.90;99.90;;;;;;5053204;28;20458;-67
2021/12/16 10:18:57;;;;;;;21.13;14.40;;;11.00;99.90;;;;;;5051678;28;20609;-67
2021/12/16 10:21:24;;;;;;;22.87;14.67;;;11.00;99.90;;;;;;5060505;28;20462;-67
2021/12/16 10:23:52;;;;;;;26.23;15.40;;;11.10;99.90;;;;;;5056031;28;20493;-67
2021/12/16 10:26:23;;;;;;;20.03;14.60;;;11.10;99.90;;;;;;5057238;28;20468;-70
2021/12/16 10:28:52;;;;;;;18.13;13.03;;;11.20;99.90;;;;;;5056612;28;20457;-68
2021/12/16 10:31:22;;;;;;;15.80;13.40;;;11.20;99.90;;;;;;5056559;28;20522;-67
2021/12/16 10:33:52;;;;;;;21.30;13.63;;;11.20;99.90;;;;;;5058138;28;20505;-67
2021/12/16 10:36:21;;;;;;;21.70;13.43;;;11.20;99.90;;;;;;5059113;28;20476;-68
2021/12/16 10:38:51;;;;;;;21.77;13.77;;;11.10;99.90;;;;;;5057593;28;20500;-68
2021/12/16 10:41:23;;;;;;;26.97;12.20;;;11.10;99.90;;;;;;5059756;28;20482;-65
2021/12/16 10:43:53;;;;;;;18.53;14.00;;;11.10;99.90;;;;;;5053451;28;20513;-65
2021/12/16 10:46:22;;;;;;;28.20;17.23;;;11.20;99.90;;;;;;5044461;28;20560;-68
2021/12/16 10:48:51;;;;;;;15.80;12.60;;;11.30;99.90;;;;;;5066157;28;20447;-68
2021/12/16 10:51:23;;;;;;;21.70;12.43;;;11.30;99.90;;;;;;5058273;28;21260;-67
2021/12/16 10:54:13;;;;;;;17.50;11.73;;;11.30;99.90;;;;;;5067259;28;20467;-67
2021/12/16 10:56:52;;;;;;;22.47;13.53;;;11.40;99.90;;;;;;5063127;28;20462;-67
2021/12/16 10:59:22;;;;;;;18.87;12.93;;;11.50;99.90;;;;;;5066569;28;20504;-67
2021/12/16 11:01:53;;;;;;;20.50;13.33;;;11.50;99.90;;;;;;5067966;28;20462;-67
2021/12/16 11:04:25;;;;;;;22.30;12.83;;;11.50;99.90;;;;;;5063322;28;20966;-68
2021/12/16 11:06:56;;;;;;;19.30;13.87;;;11.60;99.90;;;;;;5049260;28;20499;-68
2021/12/16 11:09:30;;;;;;;18.57;12.23;;;11.50;99.90;;;;;;5060529;28;20501;-68
2021/12/16 11:12:25;;;;;;;21.90;12.70;;;11.60;99.90;;;;;;5068383;28;20831;-68
2021/12/16 11:14:54;;;;;;;17.10;12.60;;;11.60;99.90;;;;;;5061605;28;20568;-68
2021/12/16 11:17:23;;;;;;;18.47;13.43;;;11.70;99.90;;;;;;5048360;28;20451;-68
2021/12/16 11:19:55;;;;;;;16.87;12.93;;;11.70;99.90;;;;;;5065533;28;20507;-68
2021/12/16 11:22:24;;;;;;;19.20;12.40;;;11.70;99.90;;;;;;5063296;28;20447;-68
2021/12/16 11:24:52;;;;;;;19.93;13.13;;;11.70;99.90;;;;;;5062756;28;20535;-68
2021/12/16 11:27:23;;;;;;;18.77;13.20;;;11.70;99.90;;;;;;5054544;28;20463;-70
2021/12/16 11:29:50;;;;;;;18.20;12.07;;;11.70;99.90;;;;;;5051283;28;20498;-68
2021/12/16 11:32:37;;;;;;;18.03;11.27;;;11.60;99.90;;;;;;5060222;28;20572;-68
2021/12/16 11:35:27;;;;;;;15.77;11.73;;;11.60;99.90;;;;;;5051706;28;20475;-67
2021/12/16 11:37:55;;;;;;;15.30;10.57;;;11.60;99.90;;;;;;5067437;28;20531;-67
2021/12/16 11:40:22;;;;;;;24.20;13.17;;;11.60;99.90;;;;;;5061812;28;20496;-67
2021/12/16 11:43:02;;;;;;;21.97;13.63;;;11.70;99.90;;;;;;5059499;28;20545;-69
2021/12/16 11:45:34;;;;;;;21.63;12.93;;;11.70;99.90;;;;;;5060294;28;20478;-67
2021/12/16 11:48:01;;;;;;;18.10;11.67;;;11.70;99.90;;;;;;5062099;28;21030;-69
2021/12/16 11:50:35;;;;;;;17.63;11.67;;;11.70;99.90;;;;;;5062902;28;20458;-69
2021/12/16 11:53:02;;;;;;;17.93;12.07;;;11.70;99.90;;;;;;5063682;28;20451;-69
2021/12/16 11:55:29;;;;;;;22.03;13.40;;;11.70;99.90;;;;;;5062310;28;20494;-68
2021/12/16 11:58:01;;;;;;;23.17;13.07;;;11.60;99.90;;;;;;5062616;28;20775;-69
2021/12/16 12:00:34;;;;;;;18.43;13.07;;;11.60;99.90;;;;;;5059782;28;20460;-68
2021/12/16 12:03:04;;;;;;;19.87;12.30;;;11.60;99.90;;;;;;5066157;28;20462;-68
2021/12/16 12:05:34;;;;;;;19.20;11.73;;;11.60;99.90;;;;;;5063145;28;20855;-69
2021/12/16 12:08:05;;;;;;;20.60;13.33;;;11.60;99.90;;;;;;5062702;28;20447;-69
2021/12/16 12:10:41;;;;;;;18.60;10.23;;;11.50;99.90;;;;;;5058235;28;20455;-69
2021/12/16 12:13:11;;;;;;;20.73;14.37;;;11.40;99.90;;;;;;5053858;28;20676;-69
2021/12/16 12:15:54;;;;;;;15.57;11.37;;;11.30;99.90;;;;;;5072678;22;21162;-65
2021/12/16 12:18:36;;;;;;;23.57;13.13;;;11.20;99.90;;;;;;5060143;28;20468;-66
2021/12/16 12:21:19;;;;;;;20.40;13.07;;;11.20;99.90;;;;;;5062319;28;20439;-67
2021/12/16 12:23:47;;;;;;;18.70;12.90;;;11.30;99.90;;;;;;5077144;28;20478;-66
2021/12/16 12:26:16;;;;;;;26.57;17.63;;;11.30;99.90;;;;;;5071639;28;20494;-66
2021/12/16 12:28:44;;;;;;;25.10;13.97;;;11.30;99.90;;;;;;5063614;28;20456;-66
2021/12/16 12:31:13;;;;;;;27.80;14.97;;;11.40;99.90;;;;;;5072536;28;21038;-66
2021/12/16 12:33:40;;;;;;;25.57;15.23;;;11.40;99.90;;;;;;5072030;28;20455;-66
2021/12/16 12:36:08;;;;;;;23.07;14.07;;;11.50;99.90;;;;;;5071765;28;20493;-67
2021/12/16 12:38:36;;;;;;;18.63;12.00;;;11.50;99.90;;;;;;5071453;28;20980;-67
2021/12/16 12:41:04;;;;;;;17.13;13.00;;;11.60;99.90;;;;;;5071769;28;20483;-67
2021/12/16 12:43:33;;;;;;;19.37;14.07;;;11.60;99.90;;;;;;5071386;28;20425;-67
2021/12/16 12:46:00;;;;;;;20.93;14.10;;;11.60;99.90;;;;;;5070503;28;20543;-67
2021/12/16 12:48:28;;;;;;;19.53;12.70;;;11.70;99.90;;;;;;5072061;28;20458;-64
2021/12/16 12:50:58;;;;;;;23.10;15.13;;;11.80;99.90;;;;;;5072239;28;20509;-67
2021/12/16 12:53:31;;;;;;;23.50;13.33;;;11.90;99.90;;;;;;5071789;28;20510;-67
2021/12/16 12:56:10;;;;;;;21.17;14.70;;;12.00;99.90;;;;;;5069602;28;20478;-67
2021/12/16 12:58:49;;;;;;;21.53;14.00;;;12.10;99.90;;;;;;5071938;28;20462;-68
2021/12/16 13:01:16;;;;;;;23.93;14.80;;;12.10;99.90;;;;;;5077828;28;20450;-64
2021/12/16 13:03:45;;;;;;;27.30;14.93;;;12.10;99.90;;;;;;5089296;28;20444;-66
2021/12/16 13:06:15;;;;;;;25.17;14.20;;;12.10;99.90;;;;;;5086527;28;20578;-66
2021/12/16 13:08:44;;;;;;;17.67;13.33;;;12.10;99.90;;;;;;5083895;28;20452;-67
2021/12/16 13:11:14;;;;;;;19.27;11.90;;;12.10;99.90;;;;;;5074157;28;20521;-66
2021/12/16 13:14:07;;;;;;;28.67;14.53;;;12.10;99.90;;;;;;5072942;28;20473;-66
2021/12/16 13:25:51;;;;;;;19.73;14.73;;;11.80;99.90;;;;;;5065022;28;20434;-66
2021/12/16 13:28:19;;;;;;;25.07;15.80;;;11.70;99.90;;;;;;5069786;28;20426;-66
2021/12/16 13:30:56;;;;;;;24.40;14.63;;;11.70;99.90;;;;;;5061884;28;20823;-65
2021/12/16 13:33:25;;;;;;;25.30;14.57;;;11.60;99.90;;;;;;5067431;28;20531;-67
2021/12/16 13:36:03;;;;;;;16.50;12.90;;;11.60;99.90;;;;;;5065225;28;20589;-65
2021/12/16 13:38:38;;;;;;;22.13;14.07;;;11.60;99.90;;;;;;5067143;28;20490;-66
2021/12/16 13:41:10;;;;;;;19.00;12.67;;;11.60;99.90;;;;;;5068589;28;20459;-66
2021/12/16 13:43:38;;;;;;;19.10;12.57;;;11.60;99.90;;;;;;5071237;28;20470;-67
2021/12/16 13:46:26;;;;;;;19.40;13.53;;;11.60;99.90;;;;;;5065104;28;20487;-66
2021/12/16 13:58:08;;;;;;;24.30;16.47;;;11.50;99.90;;;;;;5070047;28;20521;-66
2021/12/16 14:03:49;;;;;;;24.50;16.37;;;11.40;99.90;;;;;;5049710;28;20468;-67
2021/12/16 14:06:32;;;;;;;24.73;15.30;;;11.30;99.90;;;;;;5070592;28;20510;-65
2021/12/16 14:09:13;;;;;;;26.67;16.50;;;11.30;99.90;;;;;;5066008;28;20450;-67
2021/12/16 14:15:10;;;;;;;24.77;14.60;;;11.20;99.90;;;;;;5059731;28;20454;-68
2021/12/16 14:17:47;;;;;;;23.17;16.50;;;11.20;99.90;;;;;;5082897;28;20461;-65
2021/12/16 14:23:14;;;;;;;22.20;14.43;;;11.20;99.90;;;;;;5069802;28;20445;-66
2021/12/16 14:26:07;;;;;;;23.73;14.10;;;11.20;99.90;;;;;;5071405;28;20469;-65
2021/12/16 14:31:50;;;;;;;22.93;13.33;;;11.10;99.90;;;;;;5069781;28;20457;-66
2021/12/16 14:34:51;;;;;;;22.73;15.70;;;11.00;99.90;;;;;;5073825;28;20423;-66
2021/12/16 14:37:23;;;;;;;22.43;13.50;;;11.00;99.90;;;;;;5074881;28;20544;-64
2021/12/16 14:40:07;;;;;;;31.27;15.93;;;11.10;99.90;;;;;;5089348;28;20442;-65
2021/12/16 14:42:47;;;;;;;21.97;15.80;;;11.00;99.90;;;;;;5074841;28;20529;-65
2021/12/16 14:45:34;;;;;;;26.20;16.57;;;11.00;99.90;;;;;;5070148;28;20511;-68
2021/12/16 14:50:53;;;;;;;27.03;15.70;;;10.90;99.90;;;;;;5070114;28;20960;-66
2021/12/16 14:53:27;;;;;;;24.90;15.37;;;10.90;99.90;;;;;;5071797;28;20978;-65
2021/12/16 14:55:58;;;;;;;23.60;14.83;;;10.90;99.90;;;;;;5068131;28;20448;-65
2021/12/16 14:58:26;;;;;;;24.40;16.20;;;10.80;99.90;;;;;;5074368;28;20917;-63
2021/12/16 15:00:55;;;;;;;22.63;13.90;;;10.80;99.90;;;;;;5073070;28;20454;-65
2021/12/16 15:03:26;;;;;;;20.27;14.80;;;10.70;99.90;;;;;;5071030;28;20438;-66
2021/12/16 15:05:56;;;;;;;21.53;15.40;;;10.70;99.90;;;;;;5065598;28;20698;-66